sensor_id;sensor_type;location;lat;lon;timestamp;pressure;altitude;pressure_sealevel;temperature;humidity
35989;BME280;22064;42.672;23.282;2023-07-29T00:01:05;94556.69;;;18.42;100.00
35989;BME280;22064;42.672;23.282;2023-07-29T00:03:31;94563.81;;;18.42;100.00
35989;BME280;22064;42.672;23.282;2023-07-29T00:05:57;94556.97;;;18.41;100.00
35989;BME280;22064;42.672;23.282;2023-07-29T00:08:23;94564.78;;;18.46;100.00
35989;BME280;22064;42.672;23.282;2023-07-29T00:10:50;94562.81;;;18.38;100.00
35989;BME280;22064;42.672;23.282;2023-07-29T00:13:16;94573.59;;;18.41;100.00
35989;BME280;22064;42.672;23.282;2023-07-29T00:15:42;94565.53;;;18.19;100.00
35989;BME280;22064;42.672;23.282;2023-07-29T00:18:08;94561.81;;;18.06;100.00
35989;BME280;22064;42.672;23.282;2023-07-29T00:20:33;94558.00;;;17.98;100.00
35989;BME280;22064;42.672;23.282;2023-07-29T00:22:59;94558.88;;;17.94;100.00
35989;BME280;22064;42.672;23.282;2023-07-29T00:25:27;94548.22;;;17.85;100.00
35989;BME280;22064;42.672;23.282;2023-07-29T00:27:56;94557.03;;;17.75;100.00
35989;BME280;22064;42.672;23.282;2023-07-29T00:30:22;94549.44;;;17.74;100.00
35989;BME280;22064;42.672;23.282;2023-07-29T00:32:48;94556.25;;;17.75;100.00
35989;BME280;22064;42.672;23.282;2023-07-29T00:35:14;94552.03;;;17.79;100.00
35989;BME280;22064;42.672;23.282;2023-07-29T00:37:40;94553.91;;;17.73;100.00
35989;BME280;22064;42.672;23.282;2023-07-29T00:40:13;94546.50;;;17.75;100.00
35989;BME280;22064;42.672;23.282;2023-07-29T00:42:40;94554.94;;;17.77;100.00
35989;BME280;22064;42.672;23.282;2023-07-29T00:45:09;94550.19;;;17.93;100.00
35989;BME280;22064;42.672;23.282;2023-07-29T00:47:35;94546.59;;;18.03;100.00
35989;BME280;22064;42.672;23.282;2023-07-29T00:50:01;94552.28;;;18.10;100.00
35989;BME280;22064;42.672;23.282;2023-07-29T00:52:29;94559.09;;;18.11;100.00
35989;BME280;22064;42.672;23.282;2023-07-29T00:54:55;94553.50;;;17.99;100.00
35989;BME280;22064;42.672;23.282;2023-07-29T00:57:21;94545.38;;;17.82;100.00
35989;BME280;22064;42.672;23.282;2023-07-29T00:59:47;94540.19;;;17.76;100.00
35989;BME280;22064;42.672;23.282;2023-07-29T01:02:13;94538.13;;;17.73;100.00
35989;BME280;22064;42.672;23.282;2023-07-29T01:04:39;94533.50;;;17.65;100.00
35989;BME280;22064;42.672;23.282;2023-07-29T01:12:28;94532.72;;;17.32;100.00
35989;BME280;22064;42.672;23.282;2023-07-29T01:15:05;94544.81;;;17.33;100.00
35989;BME280;22064;42.672;23.282;2023-07-29T01:17:36;94531.72;;;17.28;100.00
35989;BME280;22064;42.672;23.282;2023-07-29T01:20:09;94541.75;;;17.45;100.00
35989;BME280;22064;42.672;23.282;2023-07-29T01:22:36;94543.53;;;17.30;100.00
35989;BME280;22064;42.672;23.282;2023-07-29T01:25:03;94534.19;;;17.19;100.00
35989;BME280;22064;42.672;23.282;2023-07-29T01:27:30;94550.06;;;17.14;100.00
35989;BME280;22064;42.672;23.282;2023-07-29T01:29:57;94536.00;;;17.05;100.00
35989;BME280;22064;42.672;23.282;2023-07-29T01:35:15;94539.19;;;17.21;100.00
35989;BME280;22064;42.672;23.282;2023-07-29T01:37:53;94543.09;;;17.23;100.00
35989;BME280;22064;42.672;23.282;2023-07-29T01:40:22;94537.91;;;17.18;100.00
35989;BME280;22064;42.672;23.282;2023-07-29T01:42:50;94541.88;;;17.16;100.00
35989;BME280;22064;42.672;23.282;2023-07-29T01:45:17;94540.13;;;17.11;100.00
35989;BME280;22064;42.672;23.282;2023-07-29T01:47:43;94539.09;;;17.07;100.00
35989;BME280;22064;42.672;23.282;2023-07-29T01:50:09;94539.47;;;17.00;100.00
35989;BME280;22064;42.672;23.282;2023-07-29T01:52:35;94538.97;;;16.98;100.00
35989;BME280;22064;42.672;23.282;2023-07-29T01:55:02;94543.53;;;16.93;100.00
35989;BME280;22064;42.672;23.282;2023-07-29T01:57:28;94535.69;;;16.88;100.00
35989;BME280;22064;42.672;23.282;2023-07-29T01:59:54;94544.16;;;16.84;100.00
35989;BME280;22064;42.672;23.282;2023-07-29T02:02:20;94542.09;;;16.81;100.00
35989;BME280;22064;42.672;23.282;2023-07-29T02:04:46;94545.22;;;16.83;100.00
35989;BME280;22064;42.672;23.282;2023-07-29T02:07:20;94537.94;;;16.75;100.00
35989;BME280;22064;42.672;23.282;2023-07-29T02:09:46;94547.44;;;16.71;100.00
35989;BME280;22064;42.672;23.282;2023-07-29T02:12:12;94534.34;;;16.66;100.00
35989;BME280;22064;42.672;23.282;2023-07-29T02:14:37;94537.84;;;16.61;100.00
35989;BME280;22064;42.672;23.282;2023-07-29T02:17:03;94543.88;;;16.62;100.00
35989;BME280;22064;42.672;23.282;2023-07-29T02:19:29;94545.56;;;16.53;100.00
35989;BME280;22064;42.672;23.282;2023-07-29T02:21:55;94558.09;;;16.61;100.00
35989;BME280;22064;42.672;23.282;2023-07-29T02:24:21;94551.00;;;16.61;100.00
35989;BME280;22064;42.672;23.282;2023-07-29T02:26:47;94554.59;;;16.66;100.00
35989;BME280;22064;42.672;23.282;2023-07-29T02:29:13;94556.75;;;16.63;100.00
35989;BME280;22064;42.672;23.282;2023-07-29T02:31:39;94550.84;;;16.72;100.00
35989;BME280;22064;42.672;23.282;2023-07-29T02:34:05;94545.50;;;16.82;100.00
35989;BME280;22064;42.672;23.282;2023-07-29T02:36:31;94544.50;;;16.97;100.00
35989;BME280;22064;42.672;23.282;2023-07-29T02:38:58;94544.94;;;17.04;100.00
35989;BME280;22064;42.672;23.282;2023-07-29T02:41:24;94547.72;;;16.94;100.00
35989;BME280;22064;42.672;23.282;2023-07-29T02:43:50;94548.78;;;16.93;100.00
35989;BME280;22064;42.672;23.282;2023-07-29T02:46:17;94542.75;;;16.92;100.00
35989;BME280;22064;42.672;23.282;2023-07-29T02:48:44;94540.22;;;16.82;100.00
35989;BME280;22064;42.672;23.282;2023-07-29T02:51:10;94545.94;;;16.65;100.00
35989;BME280;22064;42.672;23.282;2023-07-29T02:53:36;94552.47;;;16.49;100.00
35989;BME280;22064;42.672;23.282;2023-07-29T02:56:03;94553.00;;;16.46;100.00
35989;BME280;22064;42.672;23.282;2023-07-29T02:58:29;94547.16;;;16.30;100.00
35989;BME280;22064;42.672;23.282;2023-07-29T03:01:05;94545.13;;;16.22;100.00
35989;BME280;22064;42.672;23.282;2023-07-29T03:03:32;94561.66;;;16.22;100.00
35989;BME280;22064;42.672;23.282;2023-07-29T03:06:09;94571.72;;;16.15;100.00
35989;BME280;22064;42.672;23.282;2023-07-29T03:08:36;94562.88;;;16.06;100.00
35989;BME280;22064;42.672;23.282;2023-07-29T03:11:10;94574.22;;;16.01;100.00
35989;BME280;22064;42.672;23.282;2023-07-29T03:13:37;94574.81;;;15.93;100.00
35989;BME280;22064;42.672;23.282;2023-07-29T03:16:11;94568.31;;;15.85;100.00
35989;BME280;22064;42.672;23.282;2023-07-29T03:18:39;94572.03;;;15.79;100.00
35989;BME280;22064;42.672;23.282;2023-07-29T03:21:05;94574.91;;;15.83;100.00
35989;BME280;22064;42.672;23.282;2023-07-29T03:23:32;94566.22;;;15.82;100.00
35989;BME280;22064;42.672;23.282;2023-07-29T03:25:59;94574.09;;;15.82;100.00
35989;BME280;22064;42.672;23.282;2023-07-29T03:28:31;94573.06;;;15.83;100.00
35989;BME280;22064;42.672;23.282;2023-07-29T03:30:58;94576.78;;;15.77;100.00
35989;BME280;22064;42.672;23.282;2023-07-29T03:33:25;94570.78;;;15.77;100.00
35989;BME280;22064;42.672;23.282;2023-07-29T03:35:52;94572.78;;;15.85;100.00
35989;BME280;22064;42.672;23.282;2023-07-29T03:38:18;94567.19;;;15.91;100.00
35989;BME280;22064;42.672;23.282;2023-07-29T03:40:45;94570.75;;;16.06;100.00
35989;BME280;22064;42.672;23.282;2023-07-29T03:43:11;94566.34;;;16.25;100.00
35989;BME280;22064;42.672;23.282;2023-07-29T03:45:38;94575.44;;;16.62;100.00
35989;BME280;22064;42.672;23.282;2023-07-29T03:48:05;94568.56;;;17.09;100.00
35989;BME280;22064;42.672;23.282;2023-07-29T03:50:33;94567.06;;;17.92;100.00
35989;BME280;22064;42.672;23.282;2023-07-29T03:52:59;94569.84;;;18.56;100.00
35989;BME280;22064;42.672;23.282;2023-07-29T03:55:25;94570.59;;;19.26;100.00
35989;BME280;22064;42.672;23.282;2023-07-29T03:57:51;94563.16;;;19.64;100.00
35989;BME280;22064;42.672;23.282;2023-07-29T04:00:17;94569.56;;;19.13;100.00
35989;BME280;22064;42.672;23.282;2023-07-29T04:02:47;94574.47;;;18.64;100.00
35989;BME280;22064;42.672;23.282;2023-07-29T04:05:13;94569.19;;;18.23;100.00
35989;BME280;22064;42.672;23.282;2023-07-29T04:07:40;94577.09;;;17.90;100.00
35989;BME280;22064;42.672;23.282;2023-07-29T04:10:07;94583.72;;;17.69;100.00
35989;BME280;22064;42.672;23.282;2023-07-29T04:12:33;94584.91;;;17.44;100.00
35989;BME280;22064;42.672;23.282;2023-07-29T04:14:59;94582.13;;;17.35;100.00
35989;BME280;22064;42.672;23.282;2023-07-29T04:17:25;94580.41;;;17.63;100.00
35989;BME280;22064;42.672;23.282;2023-07-29T04:19:51;94574.72;;;17.56;100.00
35989;BME280;22064;42.672;23.282;2023-07-29T04:22:19;94574.59;;;17.66;100.00
35989;BME280;22064;42.672;23.282;2023-07-29T04:24:46;94570.72;;;17.59;100.00
35989;BME280;22064;42.672;23.282;2023-07-29T04:27:12;94584.19;;;17.57;100.00
35989;BME280;22064;42.672;23.282;2023-07-29T04:29:38;94576.88;;;17.54;100.00
35989;BME280;22064;42.672;23.282;2023-07-29T04:32:05;94575.56;;;17.70;100.00
35989;BME280;22064;42.672;23.282;2023-07-29T04:34:31;94579.75;;;17.71;100.00
35989;BME280;22064;42.672;23.282;2023-07-29T04:36:57;94581.19;;;17.83;100.00
35989;BME280;22064;42.672;23.282;2023-07-29T04:39:24;94584.72;;;17.92;100.00
35989;BME280;22064;42.672;23.282;2023-07-29T04:41:50;94595.56;;;18.64;100.00
35989;BME280;22064;42.672;23.282;2023-07-29T04:44:16;94583.28;;;18.74;100.00
35989;BME280;22064;42.672;23.282;2023-07-29T04:46:42;94589.50;;;18.64;100.00
35989;BME280;22064;42.672;23.282;2023-07-29T04:49:08;94584.63;;;18.99;100.00
35989;BME280;22064;42.672;23.282;2023-07-29T04:51:34;94594.19;;;19.08;100.00
35989;BME280;22064;42.672;23.282;2023-07-29T04:54:00;94593.09;;;19.23;100.00
35989;BME280;22064;42.672;23.282;2023-07-29T04:56:26;94595.13;;;19.12;100.00
35989;BME280;22064;42.672;23.282;2023-07-29T04:58:52;94603.75;;;19.54;100.00
35989;BME280;22064;42.672;23.282;2023-07-29T05:01:19;94597.72;;;19.76;100.00
35989;BME280;22064;42.672;23.282;2023-07-29T05:03:45;94601.97;;;19.27;100.00
35989;BME280;22064;42.672;23.282;2023-07-29T05:06:12;94593.69;;;18.51;100.00
35989;BME280;22064;42.672;23.282;2023-07-29T05:08:38;94607.38;;;18.67;100.00
35989;BME280;22064;42.672;23.282;2023-07-29T05:11:04;94600.75;;;18.69;100.00
35989;BME280;22064;42.672;23.282;2023-07-29T05:13:30;94615.09;;;18.63;100.00
35989;BME280;22064;42.672;23.282;2023-07-29T05:15:56;94616.66;;;18.64;100.00
35989;BME280;22064;42.672;23.282;2023-07-29T05:18:22;94612.72;;;18.34;100.00
35989;BME280;22064;42.672;23.282;2023-07-29T05:20:49;94618.25;;;18.19;100.00
35989;BME280;22064;42.672;23.282;2023-07-29T05:23:15;94615.66;;;18.33;100.00
35989;BME280;22064;42.672;23.282;2023-07-29T05:25:41;94608.94;;;18.54;100.00
35989;BME280;22064;42.672;23.282;2023-07-29T05:28:07;94619.44;;;18.73;100.00
35989;BME280;22064;42.672;23.282;2023-07-29T05:30:33;94617.06;;;18.99;100.00
35989;BME280;22064;42.672;23.282;2023-07-29T05:33:05;94614.00;;;19.56;100.00
35989;BME280;22064;42.672;23.282;2023-07-29T05:35:33;94606.19;;;20.10;100.00
35989;BME280;22064;42.672;23.282;2023-07-29T05:37:59;94615.16;;;20.53;100.00
35989;BME280;22064;42.672;23.282;2023-07-29T05:40:25;94616.78;;;20.49;100.00
35989;BME280;22064;42.672;23.282;2023-07-29T05:42:52;94618.00;;;20.43;100.00
35989;BME280;22064;42.672;23.282;2023-07-29T05:45:18;94620.44;;;20.31;100.00
35989;BME280;22064;42.672;23.282;2023-07-29T05:47:43;94621.53;;;20.30;100.00
35989;BME280;22064;42.672;23.282;2023-07-29T05:50:10;94617.16;;;20.25;100.00
35989;BME280;22064;42.672;23.282;2023-07-29T05:52:36;94612.88;;;20.38;100.00
35989;BME280;22064;42.672;23.282;2023-07-29T05:55:03;94613.03;;;20.42;100.00
35989;BME280;22064;42.672;23.282;2023-07-29T05:57:29;94621.03;;;20.50;100.00
35989;BME280;22064;42.672;23.282;2023-07-29T05:59:55;94619.69;;;20.08;100.00
35989;BME280;22064;42.672;23.282;2023-07-29T06:02:21;94609.56;;;20.01;100.00
35989;BME280;22064;42.672;23.282;2023-07-29T06:04:47;94613.03;;;20.11;100.00
35989;BME280;22064;42.672;23.282;2023-07-29T06:07:13;94613.53;;;20.21;100.00
35989;BME280;22064;42.672;23.282;2023-07-29T06:09:39;94618.19;;;20.47;100.00
35989;BME280;22064;42.672;23.282;2023-07-29T06:12:06;94615.13;;;21.02;100.00
35989;BME280;22064;42.672;23.282;2023-07-29T06:14:32;94610.72;;;21.46;100.00
35989;BME280;22064;42.672;23.282;2023-07-29T06:16:58;94622.56;;;21.92;99.20
35989;BME280;22064;42.672;23.282;2023-07-29T06:19:24;94613.66;;;22.05;99.25
35989;BME280;22064;42.672;23.282;2023-07-29T06:21:50;94607.25;;;22.15;95.88
35989;BME280;22064;42.672;23.282;2023-07-29T06:24:17;94611.75;;;22.32;93.21
35989;BME280;22064;42.672;23.282;2023-07-29T06:26:43;94603.94;;;22.44;89.22
35989;BME280;22064;42.672;23.282;2023-07-29T06:29:09;94601.81;;;22.58;84.50
35989;BME280;22064;42.672;23.282;2023-07-29T06:31:35;94601.81;;;22.67;81.96
35989;BME280;22064;42.672;23.282;2023-07-29T06:34:01;94599.66;;;22.52;86.19
35989;BME280;22064;42.672;23.282;2023-07-29T06:36:27;94603.16;;;22.82;81.77
35989;BME280;22064;42.672;23.282;2023-07-29T06:38:53;94591.69;;;22.99;79.09
35989;BME280;22064;42.672;23.282;2023-07-29T06:41:19;94597.81;;;23.41;76.73
35989;BME280;22064;42.672;23.282;2023-07-29T06:43:45;94592.28;;;23.67;72.05
35989;BME280;22064;42.672;23.282;2023-07-29T06:46:11;94584.59;;;23.54;72.07
35989;BME280;22064;42.672;23.282;2023-07-29T06:48:37;94580.72;;;23.72;70.63
35989;BME280;22064;42.672;23.282;2023-07-29T06:51:03;94592.66;;;23.87;70.90
35989;BME280;22064;42.672;23.282;2023-07-29T06:53:29;94597.34;;;24.02;67.64
35989;BME280;22064;42.672;23.282;2023-07-29T06:55:55;94600.81;;;23.82;65.70
35989;BME280;22064;42.672;23.282;2023-07-29T06:58:21;94596.16;;;23.79;65.75
35989;BME280;22064;42.672;23.282;2023-07-29T07:00:47;94600.44;;;24.04;64.72
35989;BME280;22064;42.672;23.282;2023-07-29T07:03:13;94591.69;;;24.37;62.25
35989;BME280;22064;42.672;23.282;2023-07-29T07:05:39;94592.81;;;24.48;59.87
35989;BME280;22064;42.672;23.282;2023-07-29T07:08:05;94587.50;;;24.48;61.76
35989;BME280;22064;42.672;23.282;2023-07-29T07:10:31;94593.75;;;24.64;58.53
35989;BME280;22064;42.672;23.282;2023-07-29T07:12:57;94590.84;;;24.70;58.46
35989;BME280;22064;42.672;23.282;2023-07-29T07:15:23;94588.88;;;25.16;56.63
35989;BME280;22064;42.672;23.282;2023-07-29T07:17:52;94587.84;;;25.20;55.29
35989;BME280;22064;42.672;23.282;2023-07-29T07:20:18;94580.47;;;25.42;55.06
35989;BME280;22064;42.672;23.282;2023-07-29T07:22:44;94588.84;;;25.28;56.08
35989;BME280;22064;42.672;23.282;2023-07-29T07:25:10;94589.63;;;25.16;55.11
35989;BME280;22064;42.672;23.282;2023-07-29T07:27:37;94590.28;;;25.25;55.20
35989;BME280;22064;42.672;23.282;2023-07-29T07:30:03;94574.84;;;25.31;55.45
35989;BME280;22064;42.672;23.282;2023-07-29T07:32:29;94578.94;;;25.41;54.44
35989;BME280;22064;42.672;23.282;2023-07-29T07:34:56;94583.28;;;24.47;56.11
35989;BME280;22064;42.672;23.282;2023-07-29T07:37:22;94579.91;;;23.92;60.52
35989;BME280;22064;42.672;23.282;2023-07-29T07:39:48;94574.41;;;24.43;60.91
35989;BME280;22064;42.672;23.282;2023-07-29T07:42:14;94574.44;;;24.55;58.03
35989;BME280;22064;42.672;23.282;2023-07-29T07:44:40;94563.06;;;24.34;57.27
35989;BME280;22064;42.672;23.282;2023-07-29T07:47:06;94554.03;;;24.14;59.46
35989;BME280;22064;42.672;23.282;2023-07-29T07:49:32;94575.47;;;24.30;58.90
35989;BME280;22064;42.672;23.282;2023-07-29T07:51:58;94577.56;;;24.24;58.18
35989;BME280;22064;42.672;23.282;2023-07-29T07:54:24;94572.66;;;24.14;58.50
35989;BME280;22064;42.672;23.282;2023-07-29T07:56:50;94589.03;;;24.04;59.89
35989;BME280;22064;42.672;23.282;2023-07-29T07:59:16;94584.22;;;24.18;58.73
35989;BME280;22064;42.672;23.282;2023-07-29T08:01:42;94583.75;;;24.61;58.02
35989;BME280;22064;42.672;23.282;2023-07-29T08:04:08;94573.78;;;24.83;56.12
35989;BME280;22064;42.672;23.282;2023-07-29T08:06:34;94581.63;;;24.55;56.12
35989;BME280;22064;42.672;23.282;2023-07-29T08:09:01;94567.22;;;24.43;56.78
35989;BME280;22064;42.672;23.282;2023-07-29T08:11:27;94578.88;;;24.76;57.20
35989;BME280;22064;42.672;23.282;2023-07-29T08:13:53;94573.75;;;25.20;55.60
35989;BME280;22064;42.672;23.282;2023-07-29T08:16:19;94578.13;;;25.52;53.31
35989;BME280;22064;42.672;23.282;2023-07-29T08:18:45;94591.19;;;25.98;52.58
35989;BME280;22064;42.672;23.282;2023-07-29T08:21:11;94581.88;;;25.92;50.03
35989;BME280;22064;42.672;23.282;2023-07-29T08:23:37;94586.22;;;25.56;51.58
35989;BME280;22064;42.672;23.282;2023-07-29T08:26:05;94585.22;;;25.89;52.05
35989;BME280;22064;42.672;23.282;2023-07-29T08:28:33;94589.63;;;26.25;51.57
35989;BME280;22064;42.672;23.282;2023-07-29T08:30:59;94584.03;;;26.14;48.83
35989;BME280;22064;42.672;23.282;2023-07-29T08:33:26;94586.38;;;26.03;49.25
35989;BME280;22064;42.672;23.282;2023-07-29T08:35:52;94587.09;;;26.16;49.18
35989;BME280;22064;42.672;23.282;2023-07-29T08:38:19;94580.78;;;26.37;47.90
35989;BME280;22064;42.672;23.282;2023-07-29T08:40:54;94578.13;;;26.53;47.75
35989;BME280;22064;42.672;23.282;2023-07-29T08:43:28;94562.63;;;26.58;47.50
35989;BME280;22064;42.672;23.282;2023-07-29T08:45:57;94570.09;;;26.84;47.23
35989;BME280;22064;42.672;23.282;2023-07-29T08:48:32;94566.09;;;27.10;46.73
35989;BME280;22064;42.672;23.282;2023-07-29T08:51:02;94568.78;;;27.45;45.80
35989;BME280;22064;42.672;23.282;2023-07-29T08:53:29;94564.72;;;27.51;45.63
35989;BME280;22064;42.672;23.282;2023-07-29T08:55:56;94559.13;;;27.60;44.28
35989;BME280;22064;42.672;23.282;2023-07-29T08:58:23;94565.69;;;27.62;43.05
35989;BME280;22064;42.672;23.282;2023-07-29T09:00:50;94565.19;;;27.57;41.84
35989;BME280;22064;42.672;23.282;2023-07-29T09:03:16;94559.56;;;27.43;40.88
35989;BME280;22064;42.672;23.282;2023-07-29T09:05:42;94560.53;;;27.54;40.35
35989;BME280;22064;42.672;23.282;2023-07-29T09:08:09;94566.88;;;27.46;40.12
35989;BME280;22064;42.672;23.282;2023-07-29T09:10:38;94543.09;;;27.40;38.79
35989;BME280;22064;42.672;23.282;2023-07-29T09:13:04;94539.00;;;27.66;39.78
35989;BME280;22064;42.672;23.282;2023-07-29T09:15:33;94542.03;;;28.03;39.47
35989;BME280;22064;42.672;23.282;2023-07-29T09:18:11;94551.41;;;28.13;38.80
35989;BME280;22064;42.672;23.282;2023-07-29T09:20:37;94539.94;;;28.16;39.20
35989;BME280;22064;42.672;23.282;2023-07-29T09:23:07;94544.72;;;28.26;38.95
35989;BME280;22064;42.672;23.282;2023-07-29T09:25:34;94542.31;;;28.41;38.48
35989;BME280;22064;42.672;23.282;2023-07-29T09:28:02;94539.78;;;28.74;37.47
35989;BME280;22064;42.672;23.282;2023-07-29T09:30:32;94529.31;;;28.92;37.58
35989;BME280;22064;42.672;23.282;2023-07-29T09:32:59;94530.03;;;29.16;36.75
35989;BME280;22064;42.672;23.282;2023-07-29T09:35:28;94529.25;;;29.12;36.79
35989;BME280;22064;42.672;23.282;2023-07-29T09:37:54;94537.81;;;28.71;36.68
35989;BME280;22064;42.672;23.282;2023-07-29T09:40:19;94519.88;;;28.26;36.60
35989;BME280;22064;42.672;23.282;2023-07-29T09:42:55;94519.38;;;28.20;37.83
35989;BME280;22064;42.672;23.282;2023-07-29T09:45:23;94522.69;;;27.52;37.50
35989;BME280;22064;42.672;23.282;2023-07-29T09:47:49;94522.41;;;27.18;38.17
35989;BME280;22064;42.672;23.282;2023-07-29T09:50:16;94525.16;;;27.41;37.86
35989;BME280;22064;42.672;23.282;2023-07-29T09:52:44;94524.16;;;27.30;38.55
35989;BME280;22064;42.672;23.282;2023-07-29T09:55:12;94513.59;;;27.56;38.56
35989;BME280;22064;42.672;23.282;2023-07-29T09:57:40;94511.16;;;28.09;37.29
35989;BME280;22064;42.672;23.282;2023-07-29T10:00:06;94519.41;;;28.43;35.94
35989;BME280;22064;42.672;23.282;2023-07-29T10:02:39;94509.94;;;28.26;36.87
35989;BME280;22064;42.672;23.282;2023-07-29T10:05:06;94515.09;;;28.39;35.97
35989;BME280;22064;42.672;23.282;2023-07-29T10:07:35;94511.06;;;28.48;35.06
35989;BME280;22064;42.672;23.282;2023-07-29T10:10:04;94511.09;;;28.06;35.87
35989;BME280;22064;42.672;23.282;2023-07-29T10:12:31;94509.50;;;28.01;35.72
35989;BME280;22064;42.672;23.282;2023-07-29T10:15:03;94506.97;;;28.54;34.88
35989;BME280;22064;42.672;23.282;2023-07-29T10:17:30;94493.81;;;28.99;34.49
35989;BME280;22064;42.672;23.282;2023-07-29T10:19:57;94494.16;;;29.54;33.63
35989;BME280;22064;42.672;23.282;2023-07-29T10:22:28;94482.03;;;29.67;33.03
35989;BME280;22064;42.672;23.282;2023-07-29T10:25:07;94484.97;;;29.92;32.94
35989;BME280;22064;42.672;23.282;2023-07-29T10:28:05;94484.28;;;29.99;32.20
35989;BME280;22064;42.672;23.282;2023-07-29T10:30:32;94478.06;;;30.29;31.82
35989;BME280;22064;42.672;23.282;2023-07-29T10:33:02;94476.13;;;30.29;30.96
35989;BME280;22064;42.672;23.282;2023-07-29T10:35:31;94471.25;;;30.42;31.53
35989;BME280;22064;42.672;23.282;2023-07-29T10:37:59;94459.59;;;30.24;31.01
35989;BME280;22064;42.672;23.282;2023-07-29T10:40:25;94460.56;;;30.08;30.66
35989;BME280;22064;42.672;23.282;2023-07-29T10:43:10;94465.91;;;30.05;31.37
35989;BME280;22064;42.672;23.282;2023-07-29T10:45:40;94462.72;;;30.33;31.24
35989;BME280;22064;42.672;23.282;2023-07-29T10:48:53;94469.38;;;30.50;30.56
35989;BME280;22064;42.672;23.282;2023-07-29T10:51:22;94455.72;;;30.76;29.42
35989;BME280;22064;42.672;23.282;2023-07-29T10:53:52;94454.03;;;31.16;28.68
35989;BME280;22064;42.672;23.282;2023-07-29T10:56:36;94455.69;;;31.42;28.57
35989;BME280;22064;42.672;23.282;2023-07-29T11:01:39;94439.69;;;31.92;28.17
35989;BME280;22064;42.672;23.282;2023-07-29T11:09:40;94445.47;;;32.48;27.74
35989;BME280;22064;42.672;23.282;2023-07-29T11:20:11;94430.94;;;29.94;29.60
35989;BME280;22064;42.672;23.282;2023-07-29T11:22:38;94433.22;;;30.40;29.44
35989;BME280;22064;42.672;23.282;2023-07-29T11:25:06;94437.00;;;30.87;27.87
35989;BME280;22064;42.672;23.282;2023-07-29T11:27:32;94431.09;;;31.40;27.84
35989;BME280;22064;42.672;23.282;2023-07-29T11:30:00;94433.31;;;30.51;28.05
35989;BME280;22064;42.672;23.282;2023-07-29T11:32:26;94435.31;;;30.13;29.01
35989;BME280;22064;42.672;23.282;2023-07-29T11:34:52;94433.75;;;30.12;28.14
35989;BME280;22064;42.672;23.282;2023-07-29T11:37:18;94435.31;;;30.13;28.38
35989;BME280;22064;42.672;23.282;2023-07-29T11:39:46;94429.03;;;30.46;28.02
35989;BME280;22064;42.672;23.282;2023-07-29T11:42:14;94415.56;;;30.39;27.54
35989;BME280;22064;42.672;23.282;2023-07-29T11:44:41;94424.88;;;30.56;27.41
35989;BME280;22064;42.672;23.282;2023-07-29T11:47:08;94413.28;;;30.37;27.55
35989;BME280;22064;42.672;23.282;2023-07-29T11:49:34;94413.34;;;30.52;28.09
35989;BME280;22064;42.672;23.282;2023-07-29T11:52:02;94412.19;;;31.26;27.96
35989;BME280;22064;42.672;23.282;2023-07-29T11:54:29;94409.31;;;32.10;27.71
35989;BME280;22064;42.672;23.282;2023-07-29T11:56:55;94417.59;;;31.29;27.78
35989;BME280;22064;42.672;23.282;2023-07-29T11:59:21;94413.38;;;30.59;28.74
35989;BME280;22064;42.672;23.282;2023-07-29T12:01:47;94414.56;;;30.61;28.59
35989;BME280;22064;42.672;23.282;2023-07-29T12:04:14;94399.25;;;31.57;27.50
35989;BME280;22064;42.672;23.282;2023-07-29T12:06:40;94389.28;;;32.29;27.22
35989;BME280;22064;42.672;23.282;2023-07-29T12:09:06;94392.63;;;33.01;26.26
35989;BME280;22064;42.672;23.282;2023-07-29T12:11:33;94395.53;;;33.39;25.85
35989;BME280;22064;42.672;23.282;2023-07-29T12:14:00;94384.56;;;32.79;26.55
35989;BME280;22064;42.672;23.282;2023-07-29T12:16:26;94392.19;;;33.13;25.49
35989;BME280;22064;42.672;23.282;2023-07-29T12:18:52;94386.81;;;33.06;25.36
35989;BME280;22064;42.672;23.282;2023-07-29T12:21:19;94383.19;;;33.41;25.13
35989;BME280;22064;42.672;23.282;2023-07-29T12:23:45;94370.00;;;33.54;25.34
35989;BME280;22064;42.672;23.282;2023-07-29T12:26:11;94383.94;;;34.01;24.45
35989;BME280;22064;42.672;23.282;2023-07-29T12:28:37;94377.25;;;33.71;24.97
35989;BME280;22064;42.672;23.282;2023-07-29T12:31:07;94388.72;;;33.13;24.57
35989;BME280;22064;42.672;23.282;2023-07-29T12:33:35;94383.00;;;33.00;25.82
35989;BME280;22064;42.672;23.282;2023-07-29T12:36:02;94377.75;;;31.96;26.59
35989;BME280;22064;42.672;23.282;2023-07-29T12:38:29;94370.84;;;32.09;25.82
35989;BME280;22064;42.672;23.282;2023-07-29T12:40:55;94373.69;;;33.08;24.71
35989;BME280;22064;42.672;23.282;2023-07-29T12:43:21;94390.31;;;32.88;25.45
35989;BME280;22064;42.672;23.282;2023-07-29T12:45:51;94387.72;;;32.56;25.22
35989;BME280;22064;42.672;23.282;2023-07-29T12:48:17;94367.63;;;32.79;24.74
35989;BME280;22064;42.672;23.282;2023-07-29T12:50:43;94379.28;;;32.43;25.42
35989;BME280;22064;42.672;23.282;2023-07-29T12:53:09;94369.00;;;33.26;25.41
35989;BME280;22064;42.672;23.282;2023-07-29T12:55:36;94377.72;;;32.21;25.21
35989;BME280;22064;42.672;23.282;2023-07-29T12:58:03;94377.19;;;33.05;24.58
35989;BME280;22064;42.672;23.282;2023-07-29T13:00:29;94364.63;;;33.47;24.41
35989;BME280;22064;42.672;23.282;2023-07-29T13:02:55;94374.25;;;33.48;24.44
35989;BME280;22064;42.672;23.282;2023-07-29T13:05:21;94367.72;;;32.32;25.55
35989;BME280;22064;42.672;23.282;2023-07-29T13:07:47;94379.28;;;31.90;25.15
35989;BME280;22064;42.672;23.282;2023-07-29T13:10:13;94377.56;;;31.06;25.84